Time;durP1;ratioP1;P1;durP2;ratioP2;P2;SDS_P1;SDS_P2;PMS_P1;PMS_P2;Temp;Humidity;BMP_temperature;BMP_pressure;BME280_temperature;BME280_humidity;BME280_pressure;Samples;Min_cycle;Max_cycle;Signal;HPM_P1;HPM_P2
2022/12/13 06:53:37;;;;;;;23.40;15.83;;;;;;;-1.76;100.00;97187.75;1823584;78;21022;-64
2022/12/13 06:56:09;;;;;;;20.80;15.45;;;;;;;-1.68;100.00;97192.66;1790410;80;21245;-57
2022/12/13 06:58:36;;;;;;;24.02;15.28;;;;;;;-1.64;100.00;97193.78;1824096;78;20963;-61
2022/12/13 07:01:06;;;;;;;22.02;15.18;;;;;;;-1.66;100.00;97193.72;1826950;78;20948;-63
2022/12/13 07:03:34;;;;;;;21.15;16.05;;;;;;;-1.65;100.00;97204.52;1826643;78;20857;-63
2022/12/13 07:06:07;;;;;;;21.68;14.93;;;;;;;-1.62;100.00;97208.78;1823491;78;21006;-64
2022/12/13 07:08:34;;;;;;;23.27;16.35;;;;;;;-1.57;100.00;97208.89;1823465;78;21220;-60
2022/12/13 07:11:02;;;;;;;22.07;15.58;;;;;;;-1.52;100.00;97202.43;1791045;80;20911;-63
2022/12/13 07:13:29;;;;;;;24.55;15.98;;;;;;;-1.48;100.00;97219.31;1823649;78;21474;-64
2022/12/13 07:15:56;;;;;;;22.98;15.85;;;;;;;-1.45;100.00;97214.91;1823592;78;20958;-63
2022/12/13 07:18:23;;;;;;;22.45;15.68;;;;;;;-1.42;100.00;97218.40;1791279;80;20881;-62
2022/12/13 07:20:50;;;;;;;21.90;16.77;;;;;;;-1.37;100.00;97222.41;1823722;78;21127;-60
2022/12/13 07:23:16;;;;;;;23.60;16.10;;;;;;;-1.34;100.00;97226.95;1823680;78;20912;-64
2022/12/13 07:25:53;;;;;;;23.12;14.80;;;;;;;-1.33;100.00;97232.47;1791229;80;20877;-66
2022/12/13 07:28:20;;;;;;;20.23;14.98;;;;;;;-1.34;100.00;97236.91;1823590;78;24922;-61
2022/12/13 07:30:47;;;;;;;21.55;15.15;;;;;;;-1.34;100.00;97236.14;1812402;78;20943;-59
2022/12/13 07:33:13;;;;;;;17.60;14.43;;;;;;;-1.37;100.00;97242.66;1812473;79;21715;-66
2022/12/13 07:35:40;;;;;;;21.70;15.43;;;;;;;-1.41;100.00;97254.64;1787740;79;21094;-66
2022/12/13 07:38:07;;;;;;;19.80;14.38;;;;;;;-1.40;100.00;97255.73;1761483;78;20946;-58
2022/12/13 07:40:35;;;;;;;20.57;15.50;;;;;;;-1.31;100.00;97251.42;1812041;79;20999;-62
2022/12/13 07:43:03;;;;;;;21.23;15.98;;;;;;;-1.23;100.00;97258.95;1812403;78;21054;-60
2022/12/13 07:45:31;;;;;;;19.73;14.90;;;;;;;-1.20;100.00;97262.44;1811768;78;21118;-59
2022/12/13 07:47:58;;;;;;;21.25;15.05;;;;;;;-1.21;100.00;97267.39;1795943;78;21576;-59
2022/12/13 07:50:24;;;;;;;19.52;13.75;;;;;;;-1.24;100.00;97271.28;1801471;79;20983;-56
2022/12/13 07:52:52;;;;;;;21.75;15.00;;;;;;;-1.21;100.00;97273.45;1799301;79;20863;-58
2022/12/13 07:55:20;;;;;;;19.12;15.45;;;;;;;-1.20;100.00;97276.89;1810767;78;20924;-55
2022/12/13 07:57:47;;;;;;;19.37;14.80;;;;;;;-1.18;100.00;97274.81;1812625;79;21070;-55
2022/12/13 08:00:16;;;;;;;19.95;14.80;;;;;;;-1.15;100.00;97286.16;1805974;79;20860;-55
2022/12/13 08:02:42;;;;;;;27.35;16.32;;;;;;;-1.17;100.00;97283.77;1803876;79;21441;-58
2022/12/13 08:05:10;;;;;;;21.27;14.60;;;;;;;-1.20;100.00;97287.39;1800785;79;20943;-57
2022/12/13 08:07:39;;;;;;;21.48;15.38;;;;;;;-1.22;100.00;97288.12;1794583;79;20896;-55
2022/12/13 08:10:08;;;;;;;24.40;14.90;;;;;;;-1.25;100.00;97287.30;1794842;79;21068;-55
2022/12/13 08:12:36;;;;;;;20.25;14.30;;;;;;;-1.20;100.00;97297.91;1797695;79;21026;-59
2022/12/13 08:15:05;;;;;;;18.60;14.25;;;;;;;-1.14;100.00;97293.83;1812562;79;21403;-57
2022/12/13 08:17:33;;;;;;;21.42;15.20;;;;;;;-1.11;100.00;97294.69;1780759;80;20884;-57
2022/12/13 08:20:00;;;;;;;21.27;15.25;;;;;;;-1.12;100.00;97300.16;1789311;79;20971;-56
2022/12/13 08:22:27;;;;;;;20.52;15.48;;;;;;;-1.10;100.00;97294.14;1796110;80;21037;-55
2022/12/13 08:24:54;;;;;;;20.55;14.85;;;;;;;-1.09;100.00;97295.76;1803216;78;21078;-54
2022/12/13 08:27:21;;;;;;;22.32;15.78;;;;;;;-1.06;100.00;97292.67;1812607;79;20919;-56
2022/12/13 08:29:47;;;;;;;24.55;16.17;;;;;;;-1.00;100.00;97293.04;1799299;79;20904;-63
2022/12/13 08:32:14;;;;;;;20.97;15.43;;;;;;;-0.91;100.00;97289.00;1805857;79;21073;-58
2022/12/13 08:34:42;;;;;;;21.68;15.68;;;;;;;-0.86;100.00;97300.94;1812802;78;21253;-62
2022/12/13 08:37:10;;;;;;;22.25;15.03;;;;;;;-0.81;100.00;97297.09;1826526;77;20876;-56
2022/12/13 08:39:37;;;;;;;20.45;14.78;;;;;;;-0.77;99.72;97302.16;1839558;77;20904;-60
2022/12/13 08:42:15;;;;;;;19.90;13.68;;;;;;;-0.72;98.96;97309.63;1820776;77;21500;-58
2022/12/13 08:44:47;;;;;;;19.48;13.28;;;;;;;-0.66;98.37;97304.47;1820956;77;21517;-58
2022/12/13 08:47:15;;;;;;;19.40;13.88;;;;;;;-0.60;97.78;97312.22;1848508;77;22970;-56
2022/12/13 08:49:42;;;;;;;18.50;14.10;;;;;;;-0.54;97.56;97308.63;1849442;77;21351;-57
2022/12/13 08:52:12;;;;;;;17.50;12.75;;;;;;;-0.50;96.61;97315.03;1847287;77;20892;-62
2022/12/13 08:54:39;;;;;;;17.73;12.10;;;;;;;-0.47;95.52;97314.54;1845073;77;21494;-60
2022/12/13 08:57:05;;;;;;;17.95;12.07;;;;;;;-0.45;96.19;97315.64;1821672;77;21543;-58
2022/12/13 08:59:32;;;;;;;16.55;10.82;;;;;;;-0.45;95.44;97315.12;1814612;79;21216;-57
2022/12/13 09:01:59;;;;;;;14.90;9.80;;;;;;;-0.46;94.22;97321.41;1832905;77;21560;-61
2022/12/13 09:04:26;;;;;;;12.93;10.18;;;;;;;-0.51;92.46;97323.95;1840952;77;21113;-60
2022/12/13 09:06:53;;;;;;;14.15;9.95;;;;;;;-0.56;91.69;97320.41;1824154;77;20956;-59
2022/12/13 09:09:20;;;;;;;13.53;9.30;;;;;;;-0.64;91.87;97326.88;1832467;77;20935;-62
2022/12/13 09:11:47;;;;;;;12.63;9.35;;;;;;;-0.66;91.84;97325.00;1821128;77;21111;-59
2022/12/13 09:14:13;;;;;;;11.18;8.73;;;;;;;-0.64;91.94;97325.56;1757457;80;20919;-59
2022/12/13 09:16:40;;;;;;;11.70;7.92;;;;;;;-0.63;90.63;97323.20;1771982;80;21063;-56
2022/12/13 09:21:45;;;;;;;19.23;9.63;;;;;;;-0.62;88.41;97324.80;1702466;84;21459;-58
2022/12/13 09:24:21;;;;;;;12.37;9.33;;;;;;;-0.53;88.58;97332.59;1699539;82;21122;-58
2022/12/13 09:26:52;;;;;;;12.95;8.40;;;;;;;-0.44;87.75;97329.86;1686094;82;21759;-59
2022/12/13 09:29:21;;;;;;;13.08;8.45;;;;;;;-0.38;87.15;97332.89;1698874;83;21026;-58
2022/12/13 09:31:48;;;;;;;12.65;9.30;;;;;;;-0.36;87.25;97333.95;1699535;84;20901;-61
2022/12/13 09:34:15;;;;;;;17.12;11.80;;;;;;;-0.40;87.42;97337.56;1723060;83;20927;-57
2022/12/13 09:36:42;;;;;;;14.50;9.53;;;;;;;-0.41;86.94;97330.72;1727562;81;21265;-60
2022/12/13 09:39:10;;;;;;;13.78;8.65;;;;;;;-0.42;86.81;97333.05;1726103;82;20871;-58
2022/12/13 09:41:56;;;;;;;13.43;8.68;;;;;;;-0.43;86.44;97329.35;1728001;83;20986;-64
2022/12/13 09:44:30;;;;;;;12.60;9.05;;;;;;;-0.47;86.10;97334.27;1727008;83;21018;-57
2022/12/13 09:46:57;;;;;;;14.80;10.55;;;;;;;-0.58;86.26;97331.19;1727392;83;20935;-58
2022/12/13 09:49:36;;;;;;;12.85;8.33;;;;;;;-0.67;86.50;97335.23;1727125;82;21256;-56
2022/12/13 09:52:05;;;;;;;13.95;8.43;;;;;;;-0.75;85.68;97338.22;1720125;83;21099;-57
2022/12/13 09:54:33;;;;;;;13.45;9.50;;;;;;;-0.80;86.40;97341.55;1720237;83;20969;-58
2022/12/13 09:56:59;;;;;;;12.78;8.73;;;;;;;-0.83;86.60;97342.55;1720158;83;21008;-58
2022/12/13 09:59:32;;;;;;;10.03;7.75;;;;;;;-0.83;86.85;97351.75;1719945;83;21030;-61
2022/12/13 10:02:12;;;;;;;12.98;8.68;;;;;;;-0.84;86.47;97351.45;1724110;81;21253;-57
2022/12/13 10:04:40;;;;;;;10.05;8.13;;;;;;;-0.90;86.18;97353.20;1722127;81;21532;-57
2022/12/13 10:07:16;;;;;;;13.18;8.93;;;;;;;-0.95;86.75;97359.67;1733074;81;20895;-62
2022/12/13 10:09:43;;;;;;;12.33;9.03;;;;;;;-0.91;87.13;97356.05;1731358;82;21099;-61
2022/12/13 10:12:13;;;;;;;12.63;9.20;;;;;;;-0.87;87.17;97365.06;1728492;83;21512;-57
2022/12/13 10:14:45;;;;;;;16.15;8.63;;;;;;;-0.86;87.06;97364.04;1701678;83;21196;-59
2022/12/13 10:17:15;;;;;;;14.78;8.78;;;;;;;-0.85;85.28;97365.11;1725600;81;21063;-57
2022/12/13 10:19:45;;;;;;;18.25;12.75;;;;;;;-0.88;84.84;97353.77;1703711;80;20978;-57
2022/12/13 10:22:15;;;;;;;12.30;9.15;;;;;;;-0.94;84.40;97358.63;1732096;82;20970;-62
2022/12/13 10:25:03;;;;;;;15.85;11.70;;;;;;;-1.03;84.83;97366.59;1760293;81;21354;-57
2022/12/13 10:27:40;;;;;;;17.23;10.25;;;;;;;-1.06;85.18;97367.58;1722318;82;21249;-61
2022/12/13 10:30:24;;;;;;;18.17;10.43;;;;;;;-1.08;85.45;97372.25;1732248;83;20847;-59
2022/12/13 10:32:59;;;;;;;13.70;9.88;;;;;;;-1.06;85.62;97370.21;1734604;81;20985;-61
2022/12/13 10:35:33;;;;;;;13.90;9.93;;;;;;;-1.01;86.04;97366.34;1724626;83;21031;-56
2022/12/13 10:38:04;;;;;;;15.83;11.10;;;;;;;-0.96;85.91;97369.09;1760092;81;20993;-58
2022/12/13 10:40:39;;;;;;;16.67;10.82;;;;;;;-0.92;86.06;97364.44;1720192;81;21352;-62
2022/12/13 10:43:29;;;;;;;15.72;10.20;;;;;;;-0.87;86.22;97367.69;1728561;83;21035;-57
2022/12/13 10:46:01;;;;;;;15.05;10.60;;;;;;;-0.83;86.16;97364.89;1758172;81;20946;-57
2022/12/13 10:48:34;;;;;;;16.12;10.70;;;;;;;-0.77;86.48;97365.27;1728458;83;21004;-58
2022/12/13 10:51:09;;;;;;;14.85;10.30;;;;;;;-0.67;86.48;97362.84;1760007;81;20935;-59
2022/12/13 10:53:52;;;;;;;13.05;10.03;;;;;;;-0.57;86.53;97368.31;1721970;82;20953;-63
2022/12/13 10:56:21;;;;;;;16.20;11.22;;;;;;;-0.51;86.16;97366.05;1731380;83;21442;-58
2022/12/13 10:58:51;;;;;;;13.95;10.75;;;;;;;-0.54;86.53;97361.78;1758834;81;21069;-61
2022/12/13 11:01:21;;;;;;;14.45;10.40;;;;;;;-0.54;86.85;97362.55;1728714;83;20992;-59
2022/12/13 11:04:07;;;;;;;14.50;10.82;;;;;;;-0.55;87.01;97366.23;1726660;82;21074;-56
2022/12/13 11:06:42;;;;;;;;;;;;;;;-0.53;87.39;97373.38;1758961;81;21080;-56
2022/12/13 11:09:31;;;;;;;17.85;11.40;;;;;;;-0.49;87.69;97373.17;1760567;81;20131;-55
2022/12/13 11:12:01;;;;;;;12.93;9.65;;;;;;;-0.50;87.86;97364.22;1730052;83;21011;-55
2022/12/13 11:14:33;;;;;;;17.75;12.05;;;;;;;-0.50;88.09;97367.66;1778049;80;21486;-57
2022/12/13 11:17:09;;;;;;;15.40;10.98;;;;;;;-0.49;88.22;97361.34;1758019;81;20927;-55
2022/12/13 11:19:45;;;;;;;15.58;11.68;;;;;;;-0.46;88.36;97368.77;1675940;83;22251;-57
2022/12/13 11:22:24;;;;;;;16.82;11.03;;;;;;;-0.41;88.48;97368.06;1753490;80;21473;-58
2022/12/13 11:25:01;;;;;;;15.95;9.88;;;;;;;-0.41;88.17;97371.50;1707109;83;21483;-56
2022/12/13 11:27:45;;;;;;;17.70;11.83;;;;;;;-0.41;87.27;97368.06;1727485;82;20947;-55
2022/12/13 11:30:34;;;;;;;22.05;11.00;;;;;;;-0.45;87.54;97370.89;1748421;81;21514;-61
2022/12/13 11:33:09;;;;;;;13.90;10.00;;;;;;;-0.42;87.94;97373.84;1736306;81;21286;-58
2022/12/13 11:36:12;;;;;;;12.28;9.25;;;;;;;-0.37;87.95;97379.20;1751208;80;21406;-59
2022/12/13 11:39:11;;;;;;;12.15;9.33;;;;;;;-0.37;87.89;97374.44;1754650;80;21481;-61
2022/12/13 11:41:43;;;;;;;14.38;9.10;;;;;;;-0.39;87.97;97376.01;1750965;80;21453;-66
2022/12/13 11:44:55;;;;;;;15.60;9.25;;;;;;;-0.44;88.13;97379.86;1757336;80;21069;-57
2022/12/13 11:47:27;;;;;;;12.93;9.83;;;;;;;-0.46;88.19;97375.86;1719937;83;21195;-56
2022/12/13 11:49:54;;;;;;;14.35;9.85;;;;;;;-0.57;88.60;97384.59;1755142;81;20958;-56
2022/12/13 11:52:26;;;;;;;13.13;9.70;;;;;;;-0.60;89.05;97387.18;1691325;83;21060;-59
2022/12/13 11:55:14;;;;;;;14.58;9.73;;;;;;;-0.52;89.52;97388.14;1734742;81;20974;-58
2022/12/13 11:57:56;;;;;;;13.98;8.55;;;;;;;-0.50;89.61;97382.13;1749677;80;20979;-59
2022/12/13 12:00:42;;;;;;;12.00;9.55;;;;;;;-0.49;89.55;97381.07;1748836;81;21080;-57
2022/12/13 12:03:38;;;;;;;15.53;9.68;;;;;;;-0.51;89.56;97387.09;1724699;81;21050;-53
2022/12/13 12:06:16;;;;;;;15.78;9.90;;;;;;;-0.51;89.46;97379.70;1754975;81;20907;-56
2022/12/13 12:08:57;;;;;;;11.40;8.95;;;;;;;-0.52;89.63;97381.56;1722320;81;21533;-54
2022/12/13 12:11:56;;;;;;;10.35;8.75;;;;;;;-0.56;89.65;97379.09;1745116;81;21085;-55
2022/12/13 12:14:49;;;;;;;14.58;9.90;;;;;;;-0.60;89.14;97380.60;1749604;81;21447;-57
2022/12/13 12:17:17;;;;;;;15.65;10.55;;;;;;;-0.66;89.16;97381.55;1725258;83;21358;-57
2022/12/13 12:19:45;;;;;;;13.10;10.35;;;;;;;-0.71;89.44;97382.77;1751581;82;20977;-56
2022/12/13 12:22:27;;;;;;;14.05;10.95;;;;;;;-0.72;89.64;97379.84;1723973;81;21026;-57
2022/12/13 12:25:25;;;;;;;14.73;11.28;;;;;;;-0.70;89.73;97380.40;1751676;81;20966;-58
2022/12/13 12:28:17;;;;;;;17.07;10.70;;;;;;;-0.68;89.67;97382.27;1720735;83;21166;-58
2022/12/13 12:31:09;;;;;;;13.35;9.98;;;;;;;-0.65;89.86;97383.13;1754680;81;20955;-55
2022/12/13 12:33:59;;;;;;;13.78;9.68;;;;;;;-0.65;89.91;97385.77;1705289;83;20951;-59
2022/12/13 12:36:56;;;;;;;13.55;10.65;;;;;;;-0.64;90.06;97389.20;1738690;80;21414;-61
2022/12/13 12:39:32;;;;;;;13.62;10.40;;;;;;;-0.61;89.88;97391.38;1728837;82;20983;-58
2022/12/13 12:42:22;;;;;;;14.07;10.63;;;;;;;-0.63;89.86;97394.72;1755488;81;21117;-56
2022/12/13 12:45:06;;;;;;;15.45;11.03;;;;;;;-0.66;90.23;97399.16;1702792;83;20980;-56
2022/12/13 12:47:49;;;;;;;15.23;11.18;;;;;;;-0.70;90.42;97397.49;1753486;81;20990;-64
2022/12/13 12:50:42;;;;;;;12.98;9.90;;;;;;;-0.71;90.76;97407.20;1737383;81;21021;-64
2022/12/13 12:53:33;;;;;;;16.48;11.53;;;;;;;-0.71;90.97;97401.17;1751833;81;21034;-62
2022/12/13 12:56:28;;;;;;;14.65;10.82;;;;;;;-0.70;91.34;97406.70;1736566;80;21233;-60
2022/12/13 12:59:12;;;;;;;12.88;10.45;;;;;;;-0.70;91.36;97411.95;1765368;80;20989;-62
2022/12/13 13:02:02;;;;;;;17.67;10.53;;;;;;;-0.76;91.74;97406.33;1722105;83;20975;-58
2022/12/13 13:04:34;;;;;;;25.97;18.52;;;;;;;-0.79;91.89;97411.53;1747596;81;21049;-59
2022/12/13 13:07:07;;;;;;;14.20;10.60;;;;;;;-0.77;92.35;97411.29;1722573;83;20948;-60
2022/12/13 13:09:35;;;;;;;35.75;23.77;;;;;;;-0.77;92.55;97420.49;1751110;81;21867;-65
2022/12/13 13:12:03;;;;;;;17.75;12.45;;;;;;;-0.78;92.80;97425.48;1701251;81;21039;-64
2022/12/13 13:14:38;;;;;;;17.00;10.50;;;;;;;-0.83;92.73;97420.12;1717935;83;21521;-64
2022/12/13 13:17:29;;;;;;;10.32;7.05;;;;;;;-0.84;92.93;97423.77;1755347;81;20931;-63
2022/12/13 13:20:22;;;;;;;11.15;7.87;;;;;;;-0.88;92.33;97433.16;1723609;83;21565;-59
2022/12/13 13:22:51;;;;;;;10.03;7.60;;;;;;;-0.98;92.22;97423.73;1753742;81;21309;-62
2022/12/13 13:25:33;;;;;;;9.75;6.90;;;;;;;-1.00;92.54;97424.48;1755106;81;21344;-64
2022/12/13 13:28:05;;;;;;;10.95;7.47;;;;;;;-1.07;92.61;97429.05;1731028;81;21009;-60
2022/12/13 13:30:31;;;;;;;10.58;7.60;;;;;;;-1.12;92.87;97432.88;1748311;81;20971;-62
2022/12/13 13:32:58;;;;;;;10.23;7.92;;;;;;;-1.12;93.07;97436.82;1753370;81;21203;-62
2022/12/13 13:35:36;;;;;;;9.70;7.50;;;;;;;-1.18;93.18;97439.06;1721211;83;21249;-63
2022/12/13 13:38:24;;;;;;;12.03;8.83;;;;;;;-1.19;93.60;97437.45;1754454;81;20943;-62
2022/12/13 13:40:51;;;;;;;10.65;8.98;;;;;;;-1.18;93.75;97437.75;1682723;83;20961;-62
2022/12/13 13:43:29;;;;;;;11.95;8.70;;;;;;;-1.13;94.00;97440.50;1754867;81;20903;-64
2022/12/13 13:46:10;;;;;;;12.07;8.75;;;;;;;-1.09;94.04;97444.26;1754859;81;20880;-63
2022/12/13 13:49:03;;;;;;;11.60;8.68;;;;;;;-1.10;94.22;97436.08;1723366;83;21239;-62
2022/12/13 13:51:53;;;;;;;11.50;8.40;;;;;;;-1.06;94.28;97435.92;1754783;81;21006;-61
2022/12/13 13:54:44;;;;;;;13.45;9.40;;;;;;;-1.02;94.09;97444.44;1754276;81;21002;-62
2022/12/13 13:57:57;;;;;;;13.10;9.50;;;;;;;-1.03;93.84;97440.70;1723124;83;20956;-64
2022/12/13 14:00:44;;;;;;;12.82;10.00;;;;;;;-1.11;94.07;97447.63;1754792;81;20970;-64
2022/12/13 14:04:03;;;;;;;12.33;10.03;;;;;;;-1.13;94.43;97445.75;1723202;83;21263;-65
2022/12/13 14:06:59;;;;;;;13.18;9.95;;;;;;;-1.12;94.41;97453.91;1733199;81;20993;-64
2022/12/13 14:10:04;;;;;;;14.28;9.53;;;;;;;-1.18;94.51;97450.89;1755962;81;20879;-63
2022/12/13 14:13:07;;;;;;;12.75;9.95;;;;;;;-1.23;94.77;97445.52;1756596;81;20962;-62
2022/12/13 14:16:27;;;;;;;11.35;9.35;;;;;;;-1.22;95.00;97451.04;1754202;80;20975;-65
2022/12/13 14:19:34;;;;;;;11.50;9.68;;;;;;;-1.23;95.13;97454.20;1726249;83;21279;-64
